sensor_id;sensor_type;location;lat;lon;timestamp;temperature;humidity
9772;DHT22;4925;52.588;13.370;2022-07-29T00:00:16;16.30;99.90
9772;DHT22;4925;52.588;13.370;2022-07-29T00:02:42;16.30;99.90
9772;DHT22;4925;52.588;13.370;2022-07-29T00:05:08;16.30;99.90
9772;DHT22;4925;52.588;13.370;2022-07-29T00:07:34;16.20;99.90
9772;DHT22;4925;52.588;13.370;2022-07-29T00:09:59;16.20;99.90
9772;DHT22;4925;52.588;13.370;2022-07-29T00:12:25;16.20;99.90
9772;DHT22;4925;52.588;13.370;2022-07-29T00:14:51;16.20;99.90
9772;DHT22;4925;52.588;13.370;2022-07-29T00:17:17;16.20;99.90
9772;DHT22;4925;52.588;13.370;2022-07-29T00:19:42;16.10;99.90
9772;DHT22;4925;52.588;13.370;2022-07-29T00:22:08;16.10;99.90
9772;DHT22;4925;52.588;13.370;2022-07-29T00:24:34;16.10;99.90
9772;DHT22;4925;52.588;13.370;2022-07-29T00:26:59;16.10;99.90
9772;DHT22;4925;52.588;13.370;2022-07-29T00:29:25;16.10;99.90
9772;DHT22;4925;52.588;13.370;2022-07-29T00:31:51;16.10;99.90
9772;DHT22;4925;52.588;13.370;2022-07-29T00:34:16;16.10;99.90
9772;DHT22;4925;52.588;13.370;2022-07-29T00:37:01;16.10;99.90
9772;DHT22;4925;52.588;13.370;2022-07-29T00:39:26;16.00;99.90
9772;DHT22;4925;52.588;13.370;2022-07-29T00:41:52;16.00;99.90
9772;DHT22;4925;52.588;13.370;2022-07-29T00:44:18;16.00;99.90
9772;DHT22;4925;52.588;13.370;2022-07-29T00:46:43;16.00;99.90
9772;DHT22;4925;52.588;13.370;2022-07-29T00:49:09;16.00;99.90
9772;DHT22;4925;52.588;13.370;2022-07-29T00:51:36;15.90;99.90
9772;DHT22;4925;52.588;13.370;2022-07-29T00:54:03;16.30;99.90
9772;DHT22;4925;52.588;13.370;2022-07-29T00:56:32;15.90;99.90
9772;DHT22;4925;52.588;13.370;2022-07-29T00:58:59;15.90;99.90
9772;DHT22;4925;52.588;13.370;2022-07-29T01:01:26;15.90;99.90
9772;DHT22;4925;52.588;13.370;2022-07-29T01:03:51;15.90;99.90
9772;DHT22;4925;52.588;13.370;2022-07-29T01:06:18;15.80;99.90
9772;DHT22;4925;52.588;13.370;2022-07-29T01:08:47;15.80;99.90
9772;DHT22;4925;52.588;13.370;2022-07-29T01:11:15;15.80;99.90
9772;DHT22;4925;52.588;13.370;2022-07-29T01:13:43;15.80;99.90
9772;DHT22;4925;52.588;13.370;2022-07-29T01:16:23;15.80;99.90
9772;DHT22;4925;52.588;13.370;2022-07-29T01:18:53;15.80;99.90
9772;DHT22;4925;52.588;13.370;2022-07-29T01:26:49;15.70;99.90
9772;DHT22;4925;52.588;13.370;2022-07-29T01:29:30;15.70;99.90
9772;DHT22;4925;52.588;13.370;2022-07-29T01:32:07;15.70;99.90
9772;DHT22;4925;52.588;13.370;2022-07-29T01:35:10;15.70;99.90
9772;DHT22;4925;52.588;13.370;2022-07-29T01:40:24;15.60;99.90
9772;DHT22;4925;52.588;13.370;2022-07-29T01:42:56;15.60;99.90
9772;DHT22;4925;52.588;13.370;2022-07-29T01:45:40;15.60;99.90
9772;DHT22;4925;52.588;13.370;2022-07-29T01:48:15;15.50;99.90
9772;DHT22;4925;52.588;13.370;2022-07-29T01:50:56;15.50;99.90
9772;DHT22;4925;52.588;13.370;2022-07-29T01:53:38;16.20;99.90
9772;DHT22;4925;52.588;13.370;2022-07-29T01:56:09;15.40;99.90
9772;DHT22;4925;52.588;13.370;2022-07-29T01:58:37;15.40;99.90
9772;DHT22;4925;52.588;13.370;2022-07-29T02:01:04;15.40;99.90
9772;DHT22;4925;52.588;13.370;2022-07-29T02:03:31;15.30;99.90
9772;DHT22;4925;52.588;13.370;2022-07-29T02:06:00;15.30;99.90
9772;DHT22;4925;52.588;13.370;2022-07-29T02:08:28;15.30;99.90
9772;DHT22;4925;52.588;13.370;2022-07-29T02:10:55;15.20;99.90
9772;DHT22;4925;52.588;13.370;2022-07-29T02:13:23;15.20;99.90
9772;DHT22;4925;52.588;13.370;2022-07-29T02:15:50;15.20;99.90
9772;DHT22;4925;52.588;13.370;2022-07-29T02:18:18;15.30;99.90
9772;DHT22;4925;52.588;13.370;2022-07-29T02:20:50;15.20;99.90
9772;DHT22;4925;52.588;13.370;2022-07-29T02:23:22;15.30;99.90
9772;DHT22;4925;52.588;13.370;2022-07-29T02:25:49;15.20;99.90
9772;DHT22;4925;52.588;13.370;2022-07-29T02:28:17;15.20;99.90
9772;DHT22;4925;52.588;13.370;2022-07-29T02:30:45;15.30;99.90
9772;DHT22;4925;52.588;13.370;2022-07-29T02:33:13;15.30;99.90
9772;DHT22;4925;52.588;13.370;2022-07-29T02:35:40;15.30;99.90
9772;DHT22;4925;52.588;13.370;2022-07-29T02:38:07;15.20;99.90
9772;DHT22;4925;52.588;13.370;2022-07-29T02:40:53;15.20;99.90
9772;DHT22;4925;52.588;13.370;2022-07-29T02:43:20;15.20;99.90
9772;DHT22;4925;52.588;13.370;2022-07-29T02:45:47;15.30;99.90
9772;DHT22;4925;52.588;13.370;2022-07-29T02:48:17;15.20;99.90
9772;DHT22;4925;52.588;13.370;2022-07-29T02:50:49;15.20;99.90
9772;DHT22;4925;52.588;13.370;2022-07-29T02:53:23;15.20;99.90
9772;DHT22;4925;52.588;13.370;2022-07-29T02:55:58;15.50;99.90
9772;DHT22;4925;52.588;13.370;2022-07-29T02:58:25;15.20;99.90
9772;DHT22;4925;52.588;13.370;2022-07-29T03:00:56;15.20;99.90
9772;DHT22;4925;52.588;13.370;2022-07-29T03:03:25;15.20;99.90
9772;DHT22;4925;52.588;13.370;2022-07-29T03:05:58;15.20;99.90
9772;DHT22;4925;52.588;13.370;2022-07-29T03:08:26;15.20;99.90
9772;DHT22;4925;52.588;13.370;2022-07-29T03:10:52;15.20;99.90
9772;DHT22;4925;52.588;13.370;2022-07-29T03:13:19;15.20;99.90
9772;DHT22;4925;52.588;13.370;2022-07-29T03:15:46;15.20;99.90
9772;DHT22;4925;52.588;13.370;2022-07-29T03:18:12;15.50;99.90
9772;DHT22;4925;52.588;13.370;2022-07-29T03:20:39;15.20;99.90
9772;DHT22;4925;52.588;13.370;2022-07-29T03:23:06;15.20;99.90
9772;DHT22;4925;52.588;13.370;2022-07-29T03:25:31;15.10;99.90
9772;DHT22;4925;52.588;13.370;2022-07-29T03:27:57;15.20;99.90
9772;DHT22;4925;52.588;13.370;2022-07-29T03:30:23;15.20;99.90
9772;DHT22;4925;52.588;13.370;2022-07-29T03:32:50;15.10;99.90
9772;DHT22;4925;52.588;13.370;2022-07-29T03:35:16;15.10;99.90
9772;DHT22;4925;52.588;13.370;2022-07-29T03:37:45;15.10;99.90
9772;DHT22;4925;52.588;13.370;2022-07-29T03:40:15;15.10;99.90
9772;DHT22;4925;52.588;13.370;2022-07-29T03:42:43;15.10;99.90
9772;DHT22;4925;52.588;13.370;2022-07-29T03:45:16;15.20;99.90
9772;DHT22;4925;52.588;13.370;2022-07-29T03:47:47;15.10;99.90
9772;DHT22;4925;52.588;13.370;2022-07-29T03:50:14;15.10;99.90
9772;DHT22;4925;52.588;13.370;2022-07-29T03:52:40;15.20;99.90
9772;DHT22;4925;52.588;13.370;2022-07-29T03:55:07;15.10;99.90
9772;DHT22;4925;52.588;13.370;2022-07-29T03:57:35;15.10;99.90
9772;DHT22;4925;52.588;13.370;2022-07-29T04:00:02;15.10;99.90
9772;DHT22;4925;52.588;13.370;2022-07-29T04:02:30;15.10;99.90
9772;DHT22;4925;52.588;13.370;2022-07-29T04:04:57;15.10;99.90
9772;DHT22;4925;52.588;13.370;2022-07-29T04:07:22;15.10;99.90
9772;DHT22;4925;52.588;13.370;2022-07-29T04:09:48;15.10;99.90
9772;DHT22;4925;52.588;13.370;2022-07-29T04:12:14;15.10;99.90
9772;DHT22;4925;52.588;13.370;2022-07-29T04:14:39;15.10;99.90
9772;DHT22;4925;52.588;13.370;2022-07-29T04:17:05;15.20;99.90
9772;DHT22;4925;52.588;13.370;2022-07-29T04:19:31;15.10;99.90
9772;DHT22;4925;52.588;13.370;2022-07-29T04:21:58;15.20;99.90
9772;DHT22;4925;52.588;13.370;2022-07-29T04:24:24;15.20;99.90
9772;DHT22;4925;52.588;13.370;2022-07-29T04:26:50;15.20;99.90
9772;DHT22;4925;52.588;13.370;2022-07-29T04:29:15;15.30;99.90
9772;DHT22;4925;52.588;13.370;2022-07-29T04:31:42;15.30;99.90
9772;DHT22;4925;52.588;13.370;2022-07-29T04:34:08;15.30;99.90
9772;DHT22;4925;52.588;13.370;2022-07-29T04:36:34;15.30;99.90
9772;DHT22;4925;52.588;13.370;2022-07-29T04:39:00;15.30;99.90
9772;DHT22;4925;52.588;13.370;2022-07-29T04:41:26;15.40;99.90
9772;DHT22;4925;52.588;13.370;2022-07-29T04:43:52;16.20;99.90
9772;DHT22;4925;52.588;13.370;2022-07-29T04:46:18;15.40;99.90
9772;DHT22;4925;52.588;13.370;2022-07-29T04:48:45;15.40;99.90
9772;DHT22;4925;52.588;13.370;2022-07-29T04:51:11;15.40;99.90
9772;DHT22;4925;52.588;13.370;2022-07-29T04:53:37;16.20;99.90
9772;DHT22;4925;52.588;13.370;2022-07-29T04:56:03;15.50;99.90
9772;DHT22;4925;52.588;13.370;2022-07-29T04:58:28;15.50;99.90
9772;DHT22;4925;52.588;13.370;2022-07-29T05:00:54;15.60;99.90
9772;DHT22;4925;52.588;13.370;2022-07-29T05:03:19;15.60;99.90
9772;DHT22;4925;52.588;13.370;2022-07-29T05:05:45;15.60;99.90
9772;DHT22;4925;52.588;13.370;2022-07-29T05:08:11;15.70;99.90
9772;DHT22;4925;52.588;13.370;2022-07-29T05:10:36;15.70;99.90
9772;DHT22;4925;52.588;13.370;2022-07-29T05:13:06;15.80;99.90
9772;DHT22;4925;52.588;13.370;2022-07-29T05:15:33;15.80;99.90
9772;DHT22;4925;52.588;13.370;2022-07-29T05:18:00;15.90;99.90
9772;DHT22;4925;52.588;13.370;2022-07-29T05:20:25;16.00;99.90
9772;DHT22;4925;52.588;13.370;2022-07-29T05:22:54;16.10;99.90
9772;DHT22;4925;52.588;13.370;2022-07-29T05:25:20;16.20;99.90
9772;DHT22;4925;52.588;13.370;2022-07-29T05:27:46;16.40;99.90
9772;DHT22;4925;52.588;13.370;2022-07-29T05:30:12;16.50;99.90
9772;DHT22;4925;52.588;13.370;2022-07-29T05:32:37;16.60;99.90
9772;DHT22;4925;52.588;13.370;2022-07-29T05:35:03;16.70;99.90
9772;DHT22;4925;52.588;13.370;2022-07-29T05:37:29;16.80;99.90
9772;DHT22;4925;52.588;13.370;2022-07-29T05:39:54;16.80;99.90
9772;DHT22;4925;52.588;13.370;2022-07-29T05:42:20;17.20;99.90
9772;DHT22;4925;52.588;13.370;2022-07-29T05:44:45;16.90;99.90
9772;DHT22;4925;52.588;13.370;2022-07-29T05:47:12;17.00;99.90
9772;DHT22;4925;52.588;13.370;2022-07-29T05:49:38;17.10;99.90
9772;DHT22;4925;52.588;13.370;2022-07-29T05:52:04;17.10;99.90
9772;DHT22;4925;52.588;13.370;2022-07-29T05:54:30;17.10;99.90
9772;DHT22;4925;52.588;13.370;2022-07-29T05:56:56;17.10;99.90
9772;DHT22;4925;52.588;13.370;2022-07-29T05:59:21;17.30;99.90
9772;DHT22;4925;52.588;13.370;2022-07-29T06:01:47;17.30;99.90
9772;DHT22;4925;52.588;13.370;2022-07-29T06:04:13;18.00;99.90
9772;DHT22;4925;52.588;13.370;2022-07-29T06:06:38;17.50;99.90
9772;DHT22;4925;52.588;13.370;2022-07-29T06:09:04;17.50;99.90
9772;DHT22;4925;52.588;13.370;2022-07-29T06:11:29;17.50;99.90
9772;DHT22;4925;52.588;13.370;2022-07-29T06:13:55;17.60;99.90
9772;DHT22;4925;52.588;13.370;2022-07-29T06:16:21;17.70;99.90
9772;DHT22;4925;52.588;13.370;2022-07-29T06:21:12;17.90;99.90
9772;DHT22;4925;52.588;13.370;2022-07-29T06:23:39;18.10;99.90
9772;DHT22;4925;52.588;13.370;2022-07-29T06:26:05;18.10;99.90
9772;DHT22;4925;52.588;13.370;2022-07-29T06:28:32;18.20;99.90
9772;DHT22;4925;52.588;13.370;2022-07-29T06:30:58;18.30;99.90
9772;DHT22;4925;52.588;13.370;2022-07-29T06:33:24;18.50;99.90
9772;DHT22;4925;52.588;13.370;2022-07-29T06:35:50;18.50;99.90
9772;DHT22;4925;52.588;13.370;2022-07-29T06:38:15;18.60;99.90
9772;DHT22;4925;52.588;13.370;2022-07-29T06:40:45;18.80;99.90
9772;DHT22;4925;52.588;13.370;2022-07-29T06:43:30;18.90;99.90
9772;DHT22;4925;52.588;13.370;2022-07-29T06:46:00;19.10;99.90
9772;DHT22;4925;52.588;13.370;2022-07-29T06:48:26;19.20;99.90
9772;DHT22;4925;52.588;13.370;2022-07-29T06:50:52;19.30;99.90
9772;DHT22;4925;52.588;13.370;2022-07-29T06:53:18;19.50;99.90
9772;DHT22;4925;52.588;13.370;2022-07-29T06:55:43;19.50;99.90
9772;DHT22;4925;52.588;13.370;2022-07-29T06:58:09;19.60;99.90
9772;DHT22;4925;52.588;13.370;2022-07-29T07:00:36;19.70;99.90
9772;DHT22;4925;52.588;13.370;2022-07-29T07:03:02;19.80;99.90
9772;DHT22;4925;52.588;13.370;2022-07-29T07:05:28;19.90;99.90
9772;DHT22;4925;52.588;13.370;2022-07-29T07:07:53;20.10;99.90
9772;DHT22;4925;52.588;13.370;2022-07-29T07:10:19;20.40;99.90
9772;DHT22;4925;52.588;13.370;2022-07-29T07:12:44;20.40;99.90
9772;DHT22;4925;52.588;13.370;2022-07-29T07:15:10;20.50;99.90
9772;DHT22;4925;52.588;13.370;2022-07-29T07:17:36;20.60;99.90
9772;DHT22;4925;52.588;13.370;2022-07-29T07:20:04;20.70;99.90
9772;DHT22;4925;52.588;13.370;2022-07-29T07:22:30;20.80;99.90
9772;DHT22;4925;52.588;13.370;2022-07-29T07:24:56;20.90;99.90
9772;DHT22;4925;52.588;13.370;2022-07-29T07:27:21;20.90;99.90
9772;DHT22;4925;52.588;13.370;2022-07-29T07:29:47;21.20;99.90
9772;DHT22;4925;52.588;13.370;2022-07-29T07:32:13;21.30;99.90
9772;DHT22;4925;52.588;13.370;2022-07-29T07:34:39;21.40;99.90
9772;DHT22;4925;52.588;13.370;2022-07-29T07:37:05;21.50;99.90
9772;DHT22;4925;52.588;13.370;2022-07-29T07:39:31;21.80;99.90
9772;DHT22;4925;52.588;13.370;2022-07-29T07:41:56;22.00;99.90
9772;DHT22;4925;52.588;13.370;2022-07-29T07:44:22;22.00;99.90
9772;DHT22;4925;52.588;13.370;2022-07-29T07:46:47;22.20;99.90
9772;DHT22;4925;52.588;13.370;2022-07-29T07:49:13;22.50;99.90
9772;DHT22;4925;52.588;13.370;2022-07-29T07:51:39;22.40;99.90
9772;DHT22;4925;52.588;13.370;2022-07-29T07:54:04;22.70;99.90
9772;DHT22;4925;52.588;13.370;2022-07-29T07:56:30;22.80;99.90
9772;DHT22;4925;52.588;13.370;2022-07-29T07:58:55;23.00;99.90
9772;DHT22;4925;52.588;13.370;2022-07-29T08:01:21;23.70;99.90
9772;DHT22;4925;52.588;13.370;2022-07-29T08:03:51;23.20;99.70
9772;DHT22;4925;52.588;13.370;2022-07-29T08:06:16;23.20;98.60
9772;DHT22;4925;52.588;13.370;2022-07-29T08:08:43;23.50;97.90
9772;DHT22;4925;52.588;13.370;2022-07-29T08:11:09;23.50;98.10
9772;DHT22;4925;52.588;13.370;2022-07-29T08:13:34;23.70;98.00
9772;DHT22;4925;52.588;13.370;2022-07-29T08:16:00;23.90;97.70
9772;DHT22;4925;52.588;13.370;2022-07-29T08:18:28;23.90;96.40
9772;DHT22;4925;52.588;13.370;2022-07-29T08:20:54;24.10;95.90
9772;DHT22;4925;52.588;13.370;2022-07-29T08:23:21;24.20;95.70
9772;DHT22;4925;52.588;13.370;2022-07-29T08:25:48;24.10;94.90
9772;DHT22;4925;52.588;13.370;2022-07-29T08:28:14;24.30;94.30
9772;DHT22;4925;52.588;13.370;2022-07-29T08:30:40;24.30;94.10
9772;DHT22;4925;52.588;13.370;2022-07-29T08:33:05;24.30;94.20
9772;DHT22;4925;52.588;13.370;2022-07-29T08:35:31;24.30;94.10
9772;DHT22;4925;52.588;13.370;2022-07-29T08:37:57;24.40;93.10
9772;DHT22;4925;52.588;13.370;2022-07-29T08:40:23;24.40;92.90
9772;DHT22;4925;52.588;13.370;2022-07-29T08:45:15;24.50;92.80
9772;DHT22;4925;52.588;13.370;2022-07-29T08:47:41;24.60;93.10
9772;DHT22;4925;52.588;13.370;2022-07-29T08:50:10;24.70;92.30
9772;DHT22;4925;52.588;13.370;2022-07-29T08:52:39;24.80;92.50
9772;DHT22;4925;52.588;13.370;2022-07-29T08:55:06;24.90;91.70
9772;DHT22;4925;52.588;13.370;2022-07-29T08:57:33;24.90;92.00
9772;DHT22;4925;52.588;13.370;2022-07-29T09:00:00;25.00;91.20
9772;DHT22;4925;52.588;13.370;2022-07-29T09:02:29;25.50;91.70
9772;DHT22;4925;52.588;13.370;2022-07-29T09:05:00;25.20;91.30
9772;DHT22;4925;52.588;13.370;2022-07-29T09:07:26;25.30;90.50
9772;DHT22;4925;52.588;13.370;2022-07-29T09:09:52;25.30;90.50
9772;DHT22;4925;52.588;13.370;2022-07-29T09:12:18;25.30;89.80
9772;DHT22;4925;52.588;13.370;2022-07-29T09:14:44;25.40;90.00
9772;DHT22;4925;52.588;13.370;2022-07-29T09:17:10;25.40;90.00
9772;DHT22;4925;52.588;13.370;2022-07-29T09:19:36;25.40;89.40
9772;DHT22;4925;52.588;13.370;2022-07-29T09:22:04;25.60;89.30
9772;DHT22;4925;52.588;13.370;2022-07-29T09:24:38;25.80;87.70
9772;DHT22;4925;52.588;13.370;2022-07-29T09:27:22;25.90;86.30
9772;DHT22;4925;52.588;13.370;2022-07-29T09:30:08;26.00;84.70
9772;DHT22;4925;52.588;13.370;2022-07-29T09:32:57;26.10;83.90
9772;DHT22;4925;52.588;13.370;2022-07-29T09:35:24;26.10;82.20
9772;DHT22;4925;52.588;13.370;2022-07-29T09:37:51;26.20;81.80
9772;DHT22;4925;52.588;13.370;2022-07-29T09:40:22;26.20;82.60
9772;DHT22;4925;52.588;13.370;2022-07-29T09:42:49;26.10;81.40
9772;DHT22;4925;52.588;13.370;2022-07-29T09:45:32;26.20;79.70
9772;DHT22;4925;52.588;13.370;2022-07-29T09:47:59;26.10;78.90
9772;DHT22;4925;52.588;13.370;2022-07-29T09:50:41;26.10;78.70
9772;DHT22;4925;52.588;13.370;2022-07-29T09:53:07;26.00;76.90
9772;DHT22;4925;52.588;13.370;2022-07-29T09:55:49;26.00;77.90
9772;DHT22;4925;52.588;13.370;2022-07-29T09:58:17;26.00;77.00
9772;DHT22;4925;52.588;13.370;2022-07-29T10:00:44;26.00;77.50
9772;DHT22;4925;52.588;13.370;2022-07-29T10:03:11;26.00;76.80
9772;DHT22;4925;52.588;13.370;2022-07-29T10:05:37;26.00;76.70
9772;DHT22;4925;52.588;13.370;2022-07-29T10:08:05;26.00;77.30
9772;DHT22;4925;52.588;13.370;2022-07-29T10:10:33;26.00;76.70
9772;DHT22;4925;52.588;13.370;2022-07-29T10:13:11;26.10;77.90
9772;DHT22;4925;52.588;13.370;2022-07-29T10:15:39;26.70;76.00
9772;DHT22;4925;52.588;13.370;2022-07-29T10:18:07;26.60;76.80
9772;DHT22;4925;52.588;13.370;2022-07-29T10:20:34;26.90;77.00
9772;DHT22;4925;52.588;13.370;2022-07-29T10:22:59;27.10;75.50
9772;DHT22;4925;52.588;13.370;2022-07-29T10:25:26;27.10;74.70
9772;DHT22;4925;52.588;13.370;2022-07-29T10:27:52;27.30;74.20
9772;DHT22;4925;52.588;13.370;2022-07-29T10:30:19;27.40;73.60
9772;DHT22;4925;52.588;13.370;2022-07-29T10:38:46;27.90;72.10
9772;DHT22;4925;52.588;13.370;2022-07-29T10:44:18;27.60;69.40
9772;DHT22;4925;52.588;13.370;2022-07-29T10:46:46;27.60;70.30
9772;DHT22;4925;52.588;13.370;2022-07-29T10:54:16;27.30;68.30
9772;DHT22;4925;52.588;13.370;2022-07-29T10:56:42;27.40;68.80
9772;DHT22;4925;52.588;13.370;2022-07-29T11:01:50;27.50;66.70
9772;DHT22;4925;52.588;13.370;2022-07-29T11:04:40;27.40;67.70
9772;DHT22;4925;52.588;13.370;2022-07-29T11:09:31;27.50;66.40
9772;DHT22;4925;52.588;13.370;2022-07-29T11:11:57;27.50;67.30
9772;DHT22;4925;52.588;13.370;2022-07-29T11:15:00;27.60;67.70
9772;DHT22;4925;52.588;13.370;2022-07-29T11:17:28;27.80;67.20
9772;DHT22;4925;52.588;13.370;2022-07-29T11:20:32;28.00;67.00
9772;DHT22;4925;52.588;13.370;2022-07-29T11:22:59;28.50;66.40
9772;DHT22;4925;52.588;13.370;2022-07-29T11:25:25;28.90;64.60
9772;DHT22;4925;52.588;13.370;2022-07-29T11:27:52;29.00;63.60
9772;DHT22;4925;52.588;13.370;2022-07-29T11:30:19;29.40;63.20
9772;DHT22;4925;52.588;13.370;2022-07-29T11:32:46;29.80;62.40
9772;DHT22;4925;52.588;13.370;2022-07-29T11:37:41;31.10;60.60
9772;DHT22;4925;52.588;13.370;2022-07-29T11:45:18;31.70;57.20
9772;DHT22;4925;52.588;13.370;2022-07-29T11:47:51;32.00;56.40
9772;DHT22;4925;52.588;13.370;2022-07-29T11:50:31;32.20;55.60
9772;DHT22;4925;52.588;13.370;2022-07-29T11:52:57;32.50;54.90
9772;DHT22;4925;52.588;13.370;2022-07-29T11:55:24;32.90;54.70
9772;DHT22;4925;52.588;13.370;2022-07-29T11:57:54;33.10;54.00
9772;DHT22;4925;52.588;13.370;2022-07-29T12:00:41;33.00;53.20
9772;DHT22;4925;52.588;13.370;2022-07-29T12:03:09;32.80;53.70
9772;DHT22;4925;52.588;13.370;2022-07-29T12:05:41;32.80;53.70
9772;DHT22;4925;52.588;13.370;2022-07-29T12:08:22;32.70;53.40
9772;DHT22;4925;52.588;13.370;2022-07-29T12:10:49;32.90;53.70
9772;DHT22;4925;52.588;13.370;2022-07-29T12:13:19;33.20;53.50
9772;DHT22;4925;52.588;13.370;2022-07-29T12:15:56;33.40;52.20
9772;DHT22;4925;52.588;13.370;2022-07-29T12:18:22;33.80;52.10
9772;DHT22;4925;52.588;13.370;2022-07-29T12:20:48;34.10;52.10
9772;DHT22;4925;52.588;13.370;2022-07-29T12:23:21;34.20;51.70
9772;DHT22;4925;52.588;13.370;2022-07-29T12:25:46;34.00;51.70
9772;DHT22;4925;52.588;13.370;2022-07-29T12:28:14;33.80;51.70
9772;DHT22;4925;52.588;13.370;2022-07-29T12:30:49;33.90;51.80
9772;DHT22;4925;52.588;13.370;2022-07-29T12:33:26;34.00;51.50
9772;DHT22;4925;52.588;13.370;2022-07-29T12:36:00;34.10;51.00
9772;DHT22;4925;52.588;13.370;2022-07-29T12:38:26;33.90;52.10
9772;DHT22;4925;52.588;13.370;2022-07-29T12:40:53;34.10;51.90
9772;DHT22;4925;52.588;13.370;2022-07-29T12:43:24;34.10;52.50
9772;DHT22;4925;52.588;13.370;2022-07-29T12:45:54;34.20;52.50
9772;DHT22;4925;52.588;13.370;2022-07-29T12:48:37;34.00;52.50
9772;DHT22;4925;52.588;13.370;2022-07-29T12:51:04;33.70;53.20
9772;DHT22;4925;52.588;13.370;2022-07-29T12:53:31;33.50;53.60
9772;DHT22;4925;52.588;13.370;2022-07-29T12:55:58;33.30;53.80
9772;DHT22;4925;52.588;13.370;2022-07-29T12:58:39;33.00;53.90
9772;DHT22;4925;52.588;13.370;2022-07-29T13:01:10;32.90;54.00
9772;DHT22;4925;52.588;13.370;2022-07-29T13:04:09;32.40;54.60
9772;DHT22;4925;52.588;13.370;2022-07-29T13:06:40;32.20;55.10
9772;DHT22;4925;52.588;13.370;2022-07-29T13:09:16;32.00;55.30
9772;DHT22;4925;52.588;13.370;2022-07-29T13:11:47;31.70;55.80
9772;DHT22;4925;52.588;13.370;2022-07-29T13:14:37;31.60;55.80
9772;DHT22;4925;52.588;13.370;2022-07-29T13:17:10;31.70;56.50
9772;DHT22;4925;52.588;13.370;2022-07-29T13:19:43;31.60;56.60
9772;DHT22;4925;52.588;13.370;2022-07-29T13:22:10;31.50;56.20
9772;DHT22;4925;52.588;13.370;2022-07-29T13:27:11;31.30;56.70
9772;DHT22;4925;52.588;13.370;2022-07-29T13:29:38;31.20;57.40
9772;DHT22;4925;52.588;13.370;2022-07-29T13:32:05;31.10;57.70
9772;DHT22;4925;52.588;13.370;2022-07-29T13:34:31;30.80;57.50
9772;DHT22;4925;52.588;13.370;2022-07-29T13:36:57;30.80;58.20
9772;DHT22;4925;52.588;13.370;2022-07-29T13:39:22;30.80;58.80
9772;DHT22;4925;52.588;13.370;2022-07-29T13:41:48;30.90;58.60
9772;DHT22;4925;52.588;13.370;2022-07-29T13:44:13;30.90;58.30
9772;DHT22;4925;52.588;13.370;2022-07-29T13:46:39;31.10;58.10
9772;DHT22;4925;52.588;13.370;2022-07-29T13:49:04;31.10;58.10
9772;DHT22;4925;52.588;13.370;2022-07-29T13:51:30;31.00;57.80
9772;DHT22;4925;52.588;13.370;2022-07-29T13:53:56;31.00;57.40
9772;DHT22;4925;52.588;13.370;2022-07-29T13:56:21;31.00;57.00
9772;DHT22;4925;52.588;13.370;2022-07-29T13:58:47;30.50;57.70
9772;DHT22;4925;52.588;13.370;2022-07-29T14:01:13;30.50;58.20
9772;DHT22;4925;52.588;13.370;2022-07-29T14:03:38;30.60;57.80
9772;DHT22;4925;52.588;13.370;2022-07-29T14:06:06;30.50;58.10
9772;DHT22;4925;52.588;13.370;2022-07-29T14:08:32;30.50;58.70
9772;DHT22;4925;52.588;13.370;2022-07-29T14:10:58;30.30;58.60
9772;DHT22;4925;52.588;13.370;2022-07-29T14:13:23;30.30;58.20
9772;DHT22;4925;52.588;13.370;2022-07-29T14:15:49;30.40;58.90
9772;DHT22;4925;52.588;13.370;2022-07-29T14:18:15;30.30;58.40
9772;DHT22;4925;52.588;13.370;2022-07-29T14:20:40;30.10;58.70
9772;DHT22;4925;52.588;13.370;2022-07-29T14:23:07;30.10;59.30
9772;DHT22;4925;52.588;13.370;2022-07-29T14:25:33;30.00;59.70
9772;DHT22;4925;52.588;13.370;2022-07-29T14:27:59;30.00;59.70
9772;DHT22;4925;52.588;13.370;2022-07-29T14:30:24;29.90;59.00
9772;DHT22;4925;52.588;13.370;2022-07-29T14:32:50;29.80;59.60
9772;DHT22;4925;52.588;13.370;2022-07-29T14:35:16;29.90;60.00
9772;DHT22;4925;52.588;13.370;2022-07-29T14:37:41;30.00;59.90
9772;DHT22;4925;52.588;13.370;2022-07-29T14:40:09;29.90;59.00
9772;DHT22;4925;52.588;13.370;2022-07-29T14:42:35;29.90;60.20
9772;DHT22;4925;52.588;13.370;2022-07-29T14:45:02;29.80;59.50
9772;DHT22;4925;52.588;13.370;2022-07-29T14:47:28;29.70;59.80
9772;DHT22;4925;52.588;13.370;2022-07-29T14:49:54;29.30;59.50
9772;DHT22;4925;52.588;13.370;2022-07-29T14:52:19;28.80;59.90
9772;DHT22;4925;52.588;13.370;2022-07-29T14:54:45;29.10;60.90
9772;DHT22;4925;52.588;13.370;2022-07-29T14:57:11;29.00;61.20
9772;DHT22;4925;52.588;13.370;2022-07-29T14:59:36;29.00;61.00
9772;DHT22;4925;52.588;13.370;2022-07-29T15:02:02;28.90;61.70
9772;DHT22;4925;52.588;13.370;2022-07-29T15:04:28;29.00;61.70
9772;DHT22;4925;52.588;13.370;2022-07-29T15:06:53;29.10;62.00
9772;DHT22;4925;52.588;13.370;2022-07-29T15:09:19;29.00;60.80
9772;DHT22;4925;52.588;13.370;2022-07-29T15:11:44;28.90;61.60
9772;DHT22;4925;52.588;13.370;2022-07-29T15:14:10;28.70;61.20
9772;DHT22;4925;52.588;13.370;2022-07-29T15:16:36;28.70;61.30
9772;DHT22;4925;52.588;13.370;2022-07-29T15:19:03;28.70;61.10
9772;DHT22;4925;52.588;13.370;2022-07-29T15:21:29;28.70;61.00
9772;DHT22;4925;52.588;13.370;2022-07-29T15:23:54;28.90;62.20
9772;DHT22;4925;52.588;13.370;2022-07-29T15:26:20;28.80;61.80
9772;DHT22;4925;52.588;13.370;2022-07-29T15:28:46;28.80;61.40
9772;DHT22;4925;52.588;13.370;2022-07-29T15:31:11;28.90;62.10
9772;DHT22;4925;52.588;13.370;2022-07-29T15:33:37;28.70;61.70
9772;DHT22;4925;52.588;13.370;2022-07-29T15:36:03;28.60;61.70
9772;DHT22;4925;52.588;13.370;2022-07-29T15:38:30;28.50;62.10
9772;DHT22;4925;52.588;13.370;2022-07-29T15:40:56;28.40;61.50
9772;DHT22;4925;52.588;13.370;2022-07-29T15:43:22;28.30;61.50
9772;DHT22;4925;52.588;13.370;2022-07-29T15:45:48;28.30;61.10
9772;DHT22;4925;52.588;13.370;2022-07-29T15:48:32;28.40;61.10
9772;DHT22;4925;52.588;13.370;2022-07-29T15:51:01;28.30;60.60
9772;DHT22;4925;52.588;13.370;2022-07-29T15:53:27;28.30;61.70
9772;DHT22;4925;52.588;13.370;2022-07-29T15:55:52;28.30;62.70
9772;DHT22;4925;52.588;13.370;2022-07-29T15:58:18;28.40;62.90
9772;DHT22;4925;52.588;13.370;2022-07-29T16:00:43;28.40;61.60
9772;DHT22;4925;52.588;13.370;2022-07-29T16:03:09;28.40;62.50
9772;DHT22;4925;52.588;13.370;2022-07-29T16:05:35;28.20;62.00
9772;DHT22;4925;52.588;13.370;2022-07-29T16:08:00;28.20;61.90
9772;DHT22;4925;52.588;13.370;2022-07-29T16:10:26;28.10;61.80
9772;DHT22;4925;52.588;13.370;2022-07-29T16:12:52;28.10;63.10
9772;DHT22;4925;52.588;13.370;2022-07-29T16:15:17;28.10;62.50
9772;DHT22;4925;52.588;13.370;2022-07-29T16:17:43;28.10;62.50
9772;DHT22;4925;52.588;13.370;2022-07-29T16:20:09;28.20;61.80
9772;DHT22;4925;52.588;13.370;2022-07-29T16:22:34;28.20;62.50
9772;DHT22;4925;52.588;13.370;2022-07-29T16:25:00;28.30;62.50
9772;DHT22;4925;52.588;13.370;2022-07-29T16:27:26;28.30;60.90
9772;DHT22;4925;52.588;13.370;2022-07-29T16:29:53;28.40;60.80
9772;DHT22;4925;52.588;13.370;2022-07-29T16:32:20;28.40;61.70